Time;durP1;ratioP1;P1;durP2;ratioP2;P2;SDS_P1;SDS_P2;PMS_P1;PMS_P2;Temp;Humidity;BMP_temperature;BMP_pressure;BME280_temperature;BME280_humidity;BME280_pressure;Samples;Min_cycle;Max_cycle;Signal;HPM_P1;HPM_P2
2024/01/28 00:01:36;;;;;;;5.65;4.43;;;;;;;3.65;49.60;98711.56;10409795;28;20083;-54
2024/01/28 00:06:35;;;;;;;12.95;6.32;;;;;;;3.43;49.08;98620.88;10409397;28;20052;-55
2024/01/28 00:11:34;;;;;;;6.50;5.88;;;;;;;3.72;49.38;98700.72;10410084;28;20115;-55
2024/01/28 00:16:33;;;;;;;11.63;6.57;;;;;;;3.14;50.16;98645.28;10409016;28;20032;-55
2024/01/28 00:21:32;;;;;;;6.65;5.20;;;;;;;3.47;49.95;98721.06;10408240;28;20074;-53
2024/01/28 00:26:36;;;;;;;8.63;6.50;;;;;;;3.13;49.84;98645.25;10409241;28;20032;-54
2024/01/28 00:31:36;;;;;;;10.13;5.60;;;;;;;3.41;49.75;98722.56;10407914;28;20060;-55
2024/01/28 00:36:34;;;;;;;8.73;6.78;;;;;;;3.67;49.54;98737.31;10408152;28;20060;-55
2024/01/28 00:41:33;;;;;;;10.88;7.78;;;;;;;3.86;49.23;98738.13;10408197;28;20130;-55
2024/01/28 00:46:32;;;;;;;5.63;4.90;;;;;;;3.63;49.28;98751.69;10406591;28;20032;-54
2024/01/28 00:51:31;;;;;;;6.63;5.10;;;;;;;3.54;50.24;98746.16;10407429;28;20020;-54
2024/01/28 00:56:30;;;;;;;5.60;4.70;;;;;;;3.61;49.96;98746.50;10406765;28;20064;-55
2024/01/28 01:01:29;;;;;;;7.57;4.97;;;;;;;3.72;49.88;98734.09;10407154;28;20041;-55
2024/01/28 01:06:28;;;;;;;12.32;8.45;;;;;;;3.29;49.65;98672.41;10405006;28;20091;-55
2024/01/28 01:11:27;;;;;;;18.05;9.65;;;;;;;3.69;49.68;98746.81;10405874;28;20115;-55
2024/01/28 01:16:26;;;;;;;9.98;7.03;;;;;;;3.57;49.58;98739.47;10404130;28;20035;-55
2024/01/28 01:21:26;;;;;;;16.20;8.68;;;;;;;3.68;49.68;98747.63;10404166;28;20045;-54
2024/01/28 01:26:25;;;;;;;8.57;5.65;;;;;;;3.14;50.56;98680.31;10405848;28;20055;-55
2024/01/28 01:31:31;;;;;;;8.52;6.30;;;;;;;3.42;50.31;98732.03;10399131;28;20418;-54
2024/01/28 01:36:30;;;;;;;10.02;6.30;;;;;;;3.60;50.28;98734.47;10399101;28;20480;-54
2024/01/28 01:41:29;;;;;;;12.48;7.50;;;;;;;3.66;50.33;98754.41;10399703;28;20067;-54
2024/01/28 01:46:29;;;;;;;8.48;6.75;;;;;;;3.69;50.86;98766.50;10398976;28;20139;-54
2024/01/28 01:51:30;;;;;;;17.58;9.32;;;;;;;3.51;50.81;98735.78;10398168;28;20802;-54
2024/01/28 01:56:31;;;;;;;15.65;9.32;;;;;;;3.69;50.46;98782.75;10399001;28;20064;-54
2024/01/28 02:01:31;;;;;;;12.95;6.85;;;;;;;3.79;50.54;98776.31;10397997;28;20469;-55
2024/01/28 02:06:30;;;;;;;11.63;7.43;;;;;;;3.32;50.22;98688.81;10397863;28;20070;-54
2024/01/28 02:11:30;;;;;;;13.73;8.07;;;;;;;3.83;49.87;98752.53;10398363;28;20031;-55
2024/01/28 02:16:29;;;;;;;12.55;8.63;;;;;;;4.01;50.28;98765.25;10397721;28;20075;-55
2024/01/28 02:21:28;;;;;;;15.40;7.72;;;;;;;3.63;50.40;98697.78;10396080;28;20029;-55
2024/01/28 02:26:27;;;;;;;11.68;8.80;;;;;;;3.78;50.53;98720.66;10397093;28;20584;-54
2024/01/28 02:31:26;;;;;;;14.18;9.10;;;;;;;4.02;50.77;98769.56;10397079;28;20852;-55
2024/01/28 02:36:26;;;;;;;15.93;9.60;;;;;;;4.22;50.61;98811.47;10396794;28;20482;-55
2024/01/28 02:41:25;;;;;;;15.80;9.80;;;;;;;3.77;50.46;98740.31;10377631;28;20060;-55
2024/01/28 02:46:24;;;;;;;12.68;7.60;;;;;;;3.63;50.68;98734.59;10369631;28;20035;-54
2024/01/28 02:51:23;;;;;;;8.90;5.93;;;;;;;3.73;50.93;98801.72;10369216;28;20064;-54
2024/01/28 02:56:22;;;;;;;9.50;5.80;;;;;;;2.69;51.05;98631.38;10369399;28;20072;-55
2024/01/28 03:01:21;;;;;;;6.03;5.03;;;;;;;3.60;52.02;98815.72;10368674;28;20060;-55
2024/01/28 03:06:20;;;;;;;7.88;5.05;;;;;;;3.08;52.35;98754.44;10369082;28;20033;-54
2024/01/28 03:11:19;;;;;;;13.65;7.30;;;;;;;3.18;52.32;98785.66;10368509;28;20056;-54
2024/01/28 03:16:18;;;;;;;11.93;7.60;;;;;;;2.99;52.26;98740.38;10368487;28;20061;-54
2024/01/28 03:21:17;;;;;;;17.90;11.27;;;;;;;3.32;52.16;98795.69;10368945;28;20049;-55
2024/01/28 03:26:19;;;;;;;14.07;8.48;;;;;;;2.54;52.52;98649.50;10368139;28;20068;-54
2024/01/28 03:31:18;;;;;;;12.43;6.20;;;;;;;3.34;52.07;98786.38;10367497;28;20159;-55
2024/01/28 03:36:17;;;;;;;16.00;10.70;;;;;;;2.72;51.69;98668.28;10368044;28;20485;-55
2024/01/28 03:41:16;;;;;;;12.43;8.68;;;;;;;3.40;52.08;98778.91;10367287;28;20036;-55
2024/01/28 03:46:15;;;;;;;18.48;10.77;;;;;;;3.49;51.55;98824.63;10367297;28;20033;-55
2024/01/28 03:51:14;;;;;;;14.27;10.25;;;;;;;3.85;51.62;98862.19;10365911;28;20086;-55
2024/01/28 03:56:13;;;;;;;13.05;10.15;;;;;;;3.76;51.77;98866.06;10366404;28;20040;-54
2024/01/28 04:01:12;;;;;;;18.20;10.05;;;;;;;3.81;52.00;98880.84;10366544;28;20055;-55
2024/01/28 04:06:11;;;;;;;15.98;9.77;;;;;;;3.73;51.99;98861.66;10366249;28;20443;-54
2024/01/28 04:11:10;;;;;;;18.10;9.32;;;;;;;3.69;51.72;98877.72;10365670;28;20032;-55
2024/01/28 04:16:09;;;;;;;16.70;10.27;;;;;;;3.00;51.91;98752.41;10366159;28;20510;-55
2024/01/28 04:21:09;;;;;;;14.43;10.02;;;;;;;3.82;52.50;98903.16;10365416;28;20130;-57
2024/01/28 04:26:09;;;;;;;14.60;10.68;;;;;;;3.45;52.74;98854.44;10364600;28;20076;-54
2024/01/28 04:31:09;;;;;;;19.13;12.63;;;;;;;3.67;52.69;98912.72;10365352;28;20091;-55
2024/01/28 04:36:08;;;;;;;23.25;13.15;;;;;;;3.64;52.52;98908.34;10365373;28;20064;-54
2024/01/28 04:41:07;;;;;;;22.80;15.65;;;;;;;3.44;53.56;98884.31;10364610;28;20067;-54
2024/01/28 04:46:06;;;;;;;25.58;14.27;;;;;;;3.38;53.40;98894.31;10364947;28;20064;-54
2024/01/28 04:51:06;;;;;;;24.40;13.70;;;;;;;3.38;53.45;98904.59;10364571;28;20021;-55
2024/01/28 04:56:05;;;;;;;16.40;10.27;;;;;;;3.30;53.64;98905.91;10364133;28;20506;-54
2024/01/28 05:01:04;;;;;;;13.93;8.60;;;;;;;3.23;54.01;98927.81;10365525;28;20067;-55
2024/01/28 05:06:04;;;;;;;14.68;8.35;;;;;;;3.17;53.95;98919.00;10362218;28;20056;-54
2024/01/28 05:11:03;;;;;;;8.20;7.05;;;;;;;2.98;54.32;98906.97;10363435;28;20060;-54
2024/01/28 05:16:03;;;;;;;9.48;7.80;;;;;;;2.94;53.95;98912.78;10361171;28;20064;-54
2024/01/28 05:21:02;;;;;;;7.85;6.25;;;;;;;2.88;54.12;98910.78;10361012;28;20092;-54
2024/01/28 05:26:01;;;;;;;10.25;6.90;;;;;;;2.65;54.12;98876.34;10360687;28;20056;-55
2024/01/28 05:31:00;;;;;;;7.93;6.30;;;;;;;2.68;53.95;98897.03;10360573;28;20049;-54
2024/01/28 05:36:00;;;;;;;7.80;5.43;;;;;;;2.88;54.25;98945.78;10360906;28;20065;-55
2024/01/28 05:40:59;;;;;;;13.05;6.50;;;;;;;2.72;54.59;98939.94;10361346;28;20158;-55
2024/01/28 05:45:57;;;;;;;17.52;9.38;;;;;;;2.50;54.55;98897.00;10363275;28;20104;-54
2024/01/28 05:50:56;;;;;;;12.80;8.55;;;;;;;2.75;54.51;98954.59;10362678;28;20061;-55
2024/01/28 05:55:55;;;;;;;12.00;7.40;;;;;;;2.69;54.73;98960.28;10362907;28;20064;-54
2024/01/28 06:00:54;;;;;;;14.68;9.50;;;;;;;2.58;54.62;98931.56;10363147;28;20025;-55
2024/01/28 06:05:53;;;;;;;22.08;13.98;;;;;;;2.56;54.72;98938.31;10362470;28;20064;-55
2024/01/28 06:10:52;;;;;;;22.17;14.73;;;;;;;2.67;54.73;98966.13;10362561;28;20071;-55
2024/01/28 06:15:52;;;;;;;19.95;12.50;;;;;;;2.61;55.11;98981.22;10366185;28;20191;-55
2024/01/28 06:20:51;;;;;;;26.35;18.75;;;;;;;2.38;55.42;98947.63;10370345;28;20052;-56
2024/01/28 06:25:50;;;;;;;33.35;21.13;;;;;;;2.54;55.72;98985.16;10369348;28;20059;-55
2024/01/28 06:30:49;;;;;;;34.42;23.65;;;;;;;2.26;55.89;98962.38;10369735;28;20091;-56
2024/01/28 06:35:48;;;;;;;29.52;18.90;;;;;;;2.35;56.48;98973.09;10370213;28;20522;-56
2024/01/28 06:40:47;;;;;;;31.23;20.92;;;;;;;2.44;55.92;98993.16;10369432;28;20514;-56
2024/01/28 06:45:46;;;;;;;33.38;23.23;;;;;;;2.28;57.03;98965.91;10368872;28;20534;-55
2024/01/28 06:50:46;;;;;;;34.10;23.17;;;;;;;2.11;56.67;98950.56;10368057;28;20394;-55
2024/01/28 06:55:45;;;;;;;46.42;25.25;;;;;;;2.47;57.41;98981.41;10368239;28;20085;-56
2024/01/28 07:00:44;;;;;;;41.78;25.88;;;;;;;2.63;57.27;98959.09;10367518;28;20118;-56
2024/01/28 07:05:43;;;;;;;39.80;24.55;;;;;;;3.12;57.13;99005.06;10368461;28;20150;-56
2024/01/28 07:10:42;;;;;;;44.00;26.80;;;;;;;3.21;56.88;98962.81;10368369;28;20956;-54
2024/01/28 07:15:41;;;;;;;33.45;22.48;;;;;;;3.50;56.45;98970.13;10368230;28;20040;-55
2024/01/28 07:20:40;;;;;;;29.75;22.27;;;;;;;3.56;55.79;98939.59;10368125;28;20063;-56
2024/01/28 07:25:39;;;;;;;32.53;24.17;;;;;;;3.96;54.00;99010.72;10366747;28;20509;-56
2024/01/28 07:30:38;;;;;;;31.05;21.77;;;;;;;4.06;54.12;99000.06;10367115;28;20059;-56
2024/01/28 07:35:37;;;;;;;19.10;13.88;;;;;;;4.43;54.63;99028.25;10366968;28;20060;-56
2024/01/28 07:40:36;;;;;;;17.20;12.02;;;;;;;4.74;53.51;99014.16;10365879;28;20096;-56
2024/01/28 07:45:37;;;;;;;17.92;13.52;;;;;;;4.42;51.89;98944.25;10365489;28;20505;-55
2024/01/28 07:50:36;;;;;;;19.65;15.63;;;;;;;4.96;51.81;99033.94;10365603;28;20076;-56
2024/01/28 07:55:35;;;;;;;18.75;13.02;;;;;;;4.68;52.24;98968.47;10365951;28;20113;-56
2024/01/28 08:00:34;;;;;;;22.35;15.50;;;;;;;4.69;52.16;98966.81;10366188;28;20120;-56
2024/01/28 08:05:32;;;;;;;25.20;15.23;;;;;;;4.69;51.64;98985.66;10366670;28;20128;-56
2024/01/28 08:10:32;;;;;;;20.60;15.18;;;;;;;5.04;51.24;99029.13;10365467;28;20152;-56
2024/01/28 08:15:31;;;;;;;25.13;16.02;;;;;;;4.93;50.80;99021.81;10365450;28;20075;-56
2024/01/28 08:20:29;;;;;;;17.45;14.43;;;;;;;5.15;50.89;99045.00;10365424;28;20352;-55
2024/01/28 08:25:28;;;;;;;13.85;11.35;;;;;;;5.21;50.68;99033.28;10364579;28;20052;-56
2024/01/28 08:30:27;;;;;;;18.05;11.57;;;;;;;5.25;49.42;99008.53;10364498;28;20091;-56
2024/01/28 08:35:26;;;;;;;16.02;11.10;;;;;;;5.27;48.70;99012.03;10365637;28;20064;-56
2024/01/28 08:40:26;;;;;;;18.58;13.25;;;;;;;5.74;48.58;99067.13;10364245;28;20056;-55
2024/01/28 08:45:25;;;;;;;18.50;13.82;;;;;;;5.76;48.00;99055.19;10364647;28;20067;-56
2024/01/28 08:50:24;;;;;;;19.02;13.15;;;;;;;5.99;47.85;99063.81;10364764;28;20060;-56
2024/01/28 08:55:23;;;;;;;12.60;10.32;;;;;;;6.14;47.06;99053.19;10364050;28;20112;-56
2024/01/28 09:00:22;;;;;;;8.50;7.38;;;;;;;5.69;47.09;98991.38;10363973;28;20086;-56
2024/01/28 09:05:21;;;;;;;13.98;8.82;;;;;;;5.97;46.55;99056.00;10364482;28;20071;-56
2024/01/28 09:10:20;;;;;;;9.30;7.55;;;;;;;5.78;46.20;99048.41;10363388;28;20057;-56
2024/01/28 09:15:19;;;;;;;11.45;8.18;;;;;;;5.91;46.74;99055.78;10363372;28;20064;-55
2024/01/28 09:20:18;;;;;;;8.02;5.75;;;;;;;6.27;46.05;99059.69;10363909;28;20027;-56
2024/01/28 09:25:17;;;;;;;8.65;6.60;;;;;;;6.75;44.97;99085.47;10362698;28;20057;-56
2024/01/28 09:30:16;;;;;;;8.68;6.90;;;;;;;6.26;44.05;99006.34;10362664;28;20052;-55
2024/01/28 09:35:15;;;;;;;11.75;9.60;;;;;;;6.80;44.98;99061.63;10363375;28;20060;-59
2024/01/28 09:40:14;;;;;;;8.63;6.50;;;;;;;7.10;43.75;99076.41;10363045;28;20494;-55
2024/01/28 09:45:14;;;;;;;11.48;6.50;;;;;;;7.04;44.55;98998.75;10362418;28;20063;-55
2024/01/28 09:50:13;;;;;;;7.85;6.88;;;;;;;7.28;43.99;98990.06;10364072;28;20060;-55
2024/01/28 09:55:12;;;;;;;9.02;6.90;;;;;;;7.52;42.33;99024.47;10368854;28;20035;-55
2024/01/28 10:00:12;;;;;;;10.20;7.28;;;;;;;7.48;40.58;99022.59;10369220;28;20029;-55
2024/01/28 10:05:14;;;;;;;8.40;7.05;;;;;;;6.72;41.35;98970.16;10368925;28;20048;-56
2024/01/28 10:10:16;;;;;;;7.63;6.88;;;;;;;7.04;41.79;99027.16;10369764;28;20067;-56
2024/01/28 10:15:20;;;;;;;8.60;6.80;;;;;;;7.37;43.01;99060.06;10369858;28;20071;-56
2024/01/28 10:20:21;;;;;;;10.52;8.50;;;;;;;7.51;42.51;99066.59;10369024;28;20064;-56
2024/01/28 10:25:22;;;;;;;9.27;5.97;;;;;;;7.60;43.68;99060.84;10370352;28;20064;-56
2024/01/28 10:30:22;;;;;;;7.63;6.15;;;;;;;7.49;42.89;99059.63;10369641;28;20080;-56
2024/01/28 10:35:20;;;;;;;7.00;5.60;;;;;;;7.28;42.80;99016.75;10369382;28;20477;-55
2024/01/28 10:40:20;;;;;;;8.00;6.75;;;;;;;7.65;41.86;99062.75;10366536;28;20418;-56
2024/01/28 10:45:19;;;;;;;;;;;;;;;7.51;41.81;99061.44;10367596;28;20064;-55
2024/01/28 10:50:20;;;;;;;10.50;7.15;;;;;;;7.52;40.54;99042.53;10366897;28;19959;-55
2024/01/28 10:55:21;;;;;;;12.68;9.25;;;;;;;7.64;42.16;99048.09;10366741;28;20063;-55
2024/01/28 11:00:24;;;;;;;11.77;9.55;;;;;;;7.13;42.15;99024.88;10366398;28;20052;-55
2024/01/28 11:05:23;;;;;;;10.85;8.50;;;;;;;6.66;42.15;99013.81;10366561;28;20075;-55
2024/01/28 11:10:22;;;;;;;7.22;6.25;;;;;;;6.59;42.60;99060.88;10366372;28;20073;-55
2024/01/28 11:15:26;;;;;;;10.85;8.88;;;;;;;6.18;44.00;99042.19;10365734;28;20068;-55
2024/01/28 11:20:30;;;;;;;18.80;10.40;;;;;;;5.10;43.02;98932.47;10366263;28;20497;-54
2024/01/28 11:25:30;;;;;;;11.60;7.65;;;;;;;5.89;43.58;99054.84;10364873;28;20060;-54
2024/01/28 11:30:29;;;;;;;13.57;9.50;;;;;;;5.54;42.99;98986.53;10364287;28;20087;-55
2024/01/28 11:35:28;;;;;;;;;;;;;;;6.02;43.12;99057.88;10366581;28;20064;-55
2024/01/28 11:40:32;;;;;;;11.35;9.38;;;;;;;5.88;43.88;99013.56;10367362;28;19913;-55
2024/01/28 11:45:31;;;;;;;9.38;7.57;;;;;;;6.04;43.42;99030.47;10366766;28;20068;-55
2024/01/28 11:50:30;;;;;;;9.48;8.30;;;;;;;5.98;43.67;99037.16;10366772;28;20064;-55
2024/01/28 11:55:29;;;;;;;8.18;6.78;;;;;;;5.91;43.08;99016.28;10366642;28;20091;-55
2024/01/28 12:00:27;;;;;;;9.13;7.95;;;;;;;5.98;43.83;99019.13;10366336;28;20057;-55
2024/01/28 12:05:28;;;;;;;12.63;10.73;;;;;;;5.59;43.61;98948.94;10366277;28;20115;-55
2024/01/28 12:10:28;;;;;;;11.25;9.52;;;;;;;5.98;43.84;99032.00;10366566;28;20486;-55
2024/01/28 12:15:27;;;;;;;9.32;8.43;;;;;;;5.81;43.03;98993.53;10365022;28;20056;-55
2024/01/28 12:20:26;;;;;;;12.20;9.02;;;;;;;5.50;43.53;98928.88;10365631;28;20094;-55
2024/01/28 12:25:25;;;;;;;8.40;7.10;;;;;;;5.78;44.66;99012.34;10365733;28;20056;-54
2024/01/28 12:30:24;;;;;;;9.40;8.18;;;;;;;5.00;43.92;98844.63;10365270;28;20145;-55
2024/01/28 12:35:23;;;;;;;8.30;7.25;;;;;;;5.84;44.68;99007.44;10365589;28;20371;-56
2024/01/28 12:40:22;;;;;;;10.70;8.05;;;;;;;5.92;44.49;98977.66;10365457;28;20021;-55
2024/01/28 12:45:21;;;;;;;13.60;10.80;;;;;;;6.21;44.68;99013.97;10364875;28;20047;-55
2024/01/28 12:50:21;;;;;;;13.00;8.85;;;;;;;6.45;44.56;99038.88;10364750;28;20017;-56
2024/01/28 12:55:20;;;;;;;13.55;11.35;;;;;;;6.12;45.28;99013.63;10365104;28;20102;-56
2024/01/28 13:00:20;;;;;;;15.85;10.75;;;;;;;6.40;45.34;98993.16;10363531;28;20067;-56
2024/01/28 13:05:19;;;;;;;21.88;13.48;;;;;;;6.19;45.03;99010.44;10364431;28;20458;-56
2024/01/28 13:10:18;;;;;;;33.50;16.23;;;;;;;6.04;45.14;99020.16;10363965;28;20072;-56
2024/01/28 13:15:17;;;;;;;52.67;27.88;;;;;;;5.86;45.29;98953.38;10364380;28;20459;-56
2024/01/28 13:20:16;;;;;;;17.98;12.43;;;;;;;5.75;46.23;98958.13;10363908;28;20060;-56
2024/01/28 13:25:16;;;;;;;12.73;10.18;;;;;;;5.73;46.31;98981.25;10363620;28;20117;-56
2024/01/28 13:30:15;;;;;;;29.25;18.35;;;;;;;5.47;47.27;98992.25;10362749;28;20069;-56
2024/01/28 13:35:14;;;;;;;21.75;14.43;;;;;;;5.94;46.82;99030.13;10363744;28;20067;-56
2024/01/28 13:40:13;;;;;;;12.98;10.50;;;;;;;6.17;47.42;99055.91;10362318;28;20033;-56
2024/01/28 13:45:12;;;;;;;13.52;8.50;;;;;;;5.94;47.70;99037.84;10363606;28;20052;-56
2024/01/28 13:50:11;;;;;;;20.65;12.05;;;;;;;4.96;48.32;98949.06;10363429;28;20061;-56
2024/01/28 13:55:10;;;;;;;13.88;9.55;;;;;;;6.21;47.58;99064.59;10364146;28;20045;-56
2024/01/28 14:00:11;;;;;;;11.60;8.27;;;;;;;6.22;47.32;99062.09;10362912;28;20063;-56
2024/01/28 14:05:12;;;;;;;77.40;40.38;;;;;;;6.23;46.66;99066.41;10363159;28;20175;-56
2024/01/28 14:10:11;;;;;;;26.90;15.70;;;;;;;6.31;46.77;99046.97;10362601;28;20069;-56
2024/01/28 14:15:10;;;;;;;;;;;;;;;6.54;46.44;99076.16;10362791;28;20509;-55
2024/01/28 14:20:11;;;;;;;22.95;12.95;;;;;;;6.17;45.96;98987.19;10361470;28;20444;-55
2024/01/28 14:25:10;;;;;;;18.70;12.23;;;;;;;6.43;46.41;99030.19;10361115;28;20067;-55
2024/01/28 14:30:09;;;;;;;17.52;12.05;;;;;;;6.71;45.86;99068.16;10362714;28;20037;-56
2024/01/28 14:35:08;;;;;;;;;;;;;;;6.55;45.32;99074.47;10362691;28;20399;-56
2024/01/28 14:40:08;;;;;;;12.20;8.80;;;;;;;6.35;44.76;99059.16;10369570;28;20537;-56
2024/01/28 14:45:07;;;;;;;22.10;14.15;;;;;;;6.27;44.90;99060.56;10370149;28;20064;-55
2024/01/28 14:50:07;;;;;;;13.75;10.55;;;;;;;5.99;45.48;99043.19;10369345;28;20559;-55
2024/01/28 14:55:06;;;;;;;18.88;12.55;;;;;;;5.57;46.54;98980.63;10369226;28;20064;-56
2024/01/28 15:00:06;;;;;;;25.98;17.00;;;;;;;6.07;46.40;99082.13;10369509;28;20075;-55
2024/01/28 15:05:05;;;;;;;20.52;15.68;;;;;;;5.89;47.12;99072.00;10368159;28;20187;-55
2024/01/28 15:10:06;;;;;;;32.78;21.58;;;;;;;5.97;46.78;99076.63;10368834;28;20060;-55
2024/01/28 15:15:05;;;;;;;26.77;17.27;;;;;;;6.00;46.50;99073.31;10368257;28;20497;-56
2024/01/28 15:20:05;;;;;;;16.48;10.77;;;;;;;5.80;46.30;99079.38;10367140;28;20106;-54
2024/01/28 15:25:04;;;;;;;21.38;16.42;;;;;;;5.19;46.95;99052.06;10360481;28;20065;-56
2024/01/28 15:30:04;;;;;;;;;;;;;;;5.63;46.71;99118.22;10350948;28;20080;-56
2024/01/28 15:35:04;;;;;;;29.85;16.02;;;;;;;5.53;47.28;99103.19;10360898;28;19952;-55
2024/01/28 15:40:05;;;;;;;17.77;13.52;;;;;;;4.96;47.65;99027.94;10367531;28;20506;-56
2024/01/28 15:45:06;;;;;;;18.50;12.27;;;;;;;5.15;48.03;99091.31;10367343;28;20852;-56
2024/01/28 15:50:05;;;;;;;16.98;11.25;;;;;;;4.92;49.89;99138.41;10366934;28;20064;-55
2024/01/28 15:55:04;;;;;;;;;;;;;;;4.66;51.88;99144.94;10366699;28;20060;-56
2024/01/28 16:00:04;;;;;;;14.02;10.85;;;;;;;4.66;52.44;99144.94;10363318;28;19917;-56
2024/01/28 16:05:03;;;;;;;24.20;15.20;;;;;;;4.29;53.37;99122.72;10364607;28;20092;-56
2024/01/28 16:10:02;;;;;;;14.45;10.95;;;;;;;4.22;54.23;99110.41;10362857;28;20069;-55
2024/01/28 16:15:02;;;;;;;13.73;8.23;;;;;;;4.15;55.31;99153.72;10366082;28;20096;-56
2024/01/28 16:20:01;;;;;;;14.10;9.85;;;;;;;4.28;54.99;99149.22;10365487;28;20068;-56
2024/01/28 16:25:02;;;;;;;20.50;12.38;;;;;;;3.16;54.91;98986.47;10365173;28;20076;-56
2024/01/28 16:30:01;;;;;;;53.20;22.25;;;;;;;3.97;56.35;99143.47;10365014;28;20510;-55
2024/01/28 16:34:59;;;;;;;33.30;20.40;;;;;;;4.10;56.51;99165.47;10365578;28;20115;-55
2024/01/28 16:39:58;;;;;;;14.23;9.45;;;;;;;4.13;56.65;99184.50;10364944;28;20064;-56
2024/01/28 16:44:57;;;;;;;16.13;10.88;;;;;;;3.74;56.87;99135.53;10364478;28;20039;-56
2024/01/28 16:49:56;;;;;;;10.70;8.07;;;;;;;3.70;57.03;99149.03;10364807;28;20065;-56
2024/01/28 16:54:55;;;;;;;13.68;10.18;;;;;;;4.03;57.36;99203.72;10364464;28;20090;-57
2024/01/28 16:59:54;;;;;;;15.20;10.32;;;;;;;3.77;58.39;99210.13;10363823;28;20064;-56
2024/01/28 17:04:53;;;;;;;20.45;13.00;;;;;;;3.75;58.52;99192.91;10363154;28;20040;-55
2024/01/28 17:09:52;;;;;;;22.67;13.75;;;;;;;3.59;58.35;99152.78;10363449;28;20033;-56
2024/01/28 17:14:51;;;;;;;17.02;10.70;;;;;;;2.55;58.52;98992.91;10362559;28;20494;-56
2024/01/28 17:19:50;;;;;;;15.23;9.52;;;;;;;3.19;58.45;99130.25;10363676;28;20486;-55
2024/01/28 17:24:49;;;;;;;17.38;11.00;;;;;;;3.61;58.86;99212.75;10363145;28;20588;-55
2024/01/28 17:29:48;;;;;;;12.63;9.27;;;;;;;3.55;59.86;99204.75;10362781;28;20110;-56
2024/01/28 17:34:49;;;;;;;11.23;8.02;;;;;;;3.68;60.35;99237.91;10363088;28;20032;-56
2024/01/28 17:39:48;;;;;;;10.55;8.02;;;;;;;3.58;60.27;99216.03;10362720;28;20068;-56
2024/01/28 17:44:47;;;;;;;13.38;9.20;;;;;;;3.40;60.78;99195.50;10362449;28;20068;-55
2024/01/28 17:49:46;;;;;;;16.63;11.60;;;;;;;3.28;59.77;99161.50;10362690;28;20068;-55
2024/01/28 17:54:45;;;;;;;14.68;9.60;;;;;;;3.63;59.74;99209.44;10362638;28;20028;-55
2024/01/28 17:59:44;;;;;;;9.48;7.40;;;;;;;3.40;60.06;99184.31;10362393;28;20228;-56
2024/01/28 18:04:43;;;;;;;;;;;;;;;3.71;60.48;99268.91;10363916;28;20542;-56
2024/01/28 18:09:42;;;;;;;16.50;11.98;;;;;;;3.83;60.33;99268.63;10363091;28;20645;-55
2024/01/28 18:14:41;;;;;;;14.05;9.85;;;;;;;3.62;60.89;99260.72;10370068;28;20510;-55
2024/01/28 18:19:41;;;;;;;14.75;10.50;;;;;;;3.79;59.97;99238.47;10370833;28;20118;-56
2024/01/28 18:24:40;;;;;;;15.15;11.70;;;;;;;3.87;59.97;99255.16;10369424;28;20052;-57
2024/01/28 18:29:39;;;;;;;18.08;11.88;;;;;;;4.05;59.68;99265.44;10368625;28;20047;-56
2024/01/28 18:34:38;;;;;;;12.95;8.13;;;;;;;3.86;59.44;99279.91;10369406;28;20482;-55
2024/01/28 18:39:37;;;;;;;22.27;14.43;;;;;;;3.40;59.29;99171.50;10369582;28;20029;-56
2024/01/28 18:44:36;;;;;;;15.90;10.30;;;;;;;3.88;59.29;99256.03;10368959;28;20065;-55
2024/01/28 18:49:36;;;;;;;16.35;12.73;;;;;;;3.71;59.41;99235.53;10369086;28;20525;-56
2024/01/28 18:54:35;;;;;;;21.73;13.55;;;;;;;3.84;60.14;99296.06;10369301;28;20064;-55
2024/01/28 18:59:34;;;;;;;19.13;11.90;;;;;;;3.39;59.57;99193.72;10368923;28;20486;-56
2024/01/28 19:04:33;;;;;;;14.85;12.55;;;;;;;4.06;59.57;99285.19;10368204;28;20120;-55
2024/01/28 19:09:32;;;;;;;12.48;9.20;;;;;;;3.86;58.99;99261.94;10368700;28;20517;-56
2024/01/28 19:14:31;;;;;;;15.80;9.00;;;;;;;3.47;59.60;99245.41;10368262;28;20035;-55
2024/01/28 19:19:30;;;;;;;15.88;10.07;;;;;;;3.81;59.39;99299.34;10368585;28;20029;-56
2024/01/28 19:24:29;;;;;;;19.40;11.27;;;;;;;3.78;60.04;99306.91;10367801;28;20044;-56
2024/01/28 19:29:28;;;;;;;18.45;11.45;;;;;;;3.31;60.25;99246.34;10367016;28;20072;-56
2024/01/28 19:34:27;;;;;;;41.70;23.73;;;;;;;3.71;59.87;99311.66;10367894;28;20033;-56
2024/01/28 19:39:27;;;;;;;25.30;15.20;;;;;;;3.69;58.92;99275.63;10367792;28;20025;-56
2024/01/28 19:44:26;;;;;;;26.70;15.75;;;;;;;4.10;58.73;99312.75;10366741;28;20064;-55
2024/01/28 19:49:25;;;;;;;18.13;11.25;;;;;;;4.08;58.38;99296.44;10366927;28;20518;-56
2024/01/28 19:54:24;;;;;;;19.92;14.55;;;;;;;4.29;58.54;99328.31;10366870;28;20043;-56
2024/01/28 19:59:23;;;;;;;14.40;10.38;;;;;;;4.31;58.44;99305.22;10366681;28;20135;-55
2024/01/28 20:04:22;;;;;;;12.55;8.50;;;;;;;4.25;58.69;99285.28;10365259;28;20041;-56
2024/01/28 20:09:21;;;;;;;15.10;10.23;;;;;;;4.42;58.36;99323.75;10366093;28;20060;-56
2024/01/28 20:14:20;;;;;;;15.27;9.82;;;;;;;4.28;58.18;99279.41;10365956;28;20036;-56
2024/01/28 20:19:21;;;;;;;17.45;12.07;;;;;;;4.55;58.50;99330.34;10366134;28;20119;-56
2024/01/28 20:24:20;;;;;;;22.55;13.75;;;;;;;4.27;58.66;99288.81;10365623;28;20068;-56
2024/01/28 20:29:19;;;;;;;24.88;14.15;;;;;;;4.43;58.74;99320.38;10364970;28;20044;-55
2024/01/28 20:34:19;;;;;;;29.83;18.75;;;;;;;4.46;58.41;99323.97;10364253;28;20792;-56
2024/01/28 20:39:18;;;;;;;22.70;15.23;;;;;;;4.39;58.26;99314.22;10365751;28;20056;-56
2024/01/28 20:44:17;;;;;;;21.05;14.27;;;;;;;3.24;58.12;99128.81;10364167;28;20037;-56
2024/01/28 20:49:16;;;;;;;19.00;11.45;;;;;;;4.06;58.50;99354.53;10364701;28;20075;-55
2024/01/28 20:54:15;;;;;;;12.77;8.43;;;;;;;3.85;59.02;99347.50;10364616;28;20482;-56
2024/01/28 20:59:14;;;;;;;13.40;8.52;;;;;;;3.54;59.62;99352.75;10364583;28;20495;-56
2024/01/28 21:04:13;;;;;;;11.43;6.75;;;;;;;3.29;60.40;99340.31;10362035;28;20057;-55
2024/01/28 21:09:12;;;;;;;11.70;8.10;;;;;;;3.15;61.27;99323.28;10363132;28;20149;-55
2024/01/28 21:14:12;;;;;;;10.70;7.50;;;;;;;3.14;60.78;99301.00;10360632;28;20033;-55
2024/01/28 21:19:11;;;;;;;;;;;;;;;3.21;61.84;99368.13;10364042;28;20487;-55
2024/01/28 21:24:10;;;;;;;13.52;8.18;;;;;;;3.27;62.59;99370.13;10364163;28;20479;-55
2024/01/28 21:29:10;;;;;;;14.02;9.32;;;;;;;3.43;62.14;99372.69;10363523;28;20083;-55
2024/01/28 21:34:10;;;;;;;;;;;;;;;3.47;61.92;99381.44;10364220;28;20077;-55
2024/01/28 21:39:09;;;;;;;11.73;8.00;;;;;;;3.34;62.18;99343.13;10364637;28;19951;-56
2024/01/28 21:44:08;;;;;;;12.75;9.00;;;;;;;3.55;61.50;99356.19;10364930;28;20065;-56
2024/01/28 21:49:07;;;;;;;16.52;10.18;;;;;;;3.50;61.26;99342.25;10371702;28;20892;-55
2024/01/28 21:54:06;;;;;;;22.33;11.75;;;;;;;3.25;60.77;99286.19;10371146;28;20825;-56
2024/01/28 21:59:05;;;;;;;24.98;14.23;;;;;;;3.63;60.21;99347.19;10371657;28;20044;-57
2024/01/28 22:04:04;;;;;;;22.23;13.32;;;;;;;3.82;60.38;99370.47;10371423;28;20064;-57
2024/01/28 22:09:03;;;;;;;25.40;13.18;;;;;;;4.15;59.84;99398.69;10371283;28;20071;-56
2024/01/28 22:14:02;;;;;;;21.25;12.90;;;;;;;3.91;60.01;99352.06;10370867;28;20115;-56
2024/01/28 22:19:01;;;;;;;16.10;10.32;;;;;;;3.97;59.56;99369.50;10369826;28;20120;-56
2024/01/28 22:24:00;;;;;;;19.80;10.65;;;;;;;3.94;59.12;99359.03;10369378;28;20037;-55
2024/01/28 22:28:59;;;;;;;;;;;;;;;4.21;59.21;99406.69;10369637;28;20978;-55
2024/01/28 22:33:58;;;;;;;14.68;8.80;;;;;;;4.11;59.10;99373.63;10369778;28;19955;-54
2024/01/28 22:38:57;;;;;;;14.10;9.20;;;;;;;4.10;59.40;99381.25;10370250;28;20068;-55
2024/01/28 22:43:57;;;;;;;18.45;11.45;;;;;;;3.76;59.74;99352.16;10369460;28;20065;-55
2024/01/28 22:48:56;;;;;;;15.48;10.38;;;;;;;3.94;59.72;99375.34;10368006;28;20470;-55
2024/01/28 22:53:55;;;;;;;10.90;8.18;;;;;;;3.92;60.00;99401.75;10368714;28;20413;-55
2024/01/28 22:58:54;;;;;;;18.92;9.25;;;;;;;3.88;60.46;99410.09;10368892;28;20064;-55
2024/01/28 23:03:53;;;;;;;14.13;10.02;;;;;;;3.61;60.22;99342.00;10369015;28;20075;-55
2024/01/28 23:08:52;;;;;;;13.00;9.70;;;;;;;3.83;60.32;99379.94;10369605;28;20148;-55